Janice Roberts — WDD6360 — position and weather

sailwx.info

Track history (hours):
 
Tides and Currents Weather Stations Pressure Air Temp Water Temp Dewpoint Dewpoint Depression Visibility Wind Speed Wind Dir Waves Ship Positions

Janice Roberts

Owner: Florida Marine, LLC, Mandeville, LA. More information available from US FCC via Universal Licensing System and Coast Guard Vessel Documentation Center.

Last reported at 2018-Feb-16 11:54 UTC. Time now 2018-Feb-20 13:30 UTC.
Position N 31°27' W 091°31'.

Length 27 m; draft 3.6 m.

Type: Towing. MMSI: 367171930.

Date/timePositionNaut miles runAvg speedWind from/ knotsBaromVisibWave heightAir tempDewpointWater temp
2018-Feb-16 11:54N 31°27' W 091°31'2 4.2
2018-Feb-16 11:28N 31°25' W 091°30'2 3.9
2018-Feb-16 10:50N 31°24' W 091°28'2 3.5
2018-Feb-16 10:18N 31°22' W 091°29'  
2018-Feb-10 21:29N 29°50' W 091°57'2 4.6
2018-Feb-10 21:00N 29°50' W 091°60'2 4.4
2018-Feb-10 20:30N 29°49' W 092°02'3 5.1
2018-Feb-10 20:00N 29°48' W 092°05'3 5.3
2018-Feb-10 19:30N 29°47' W 092°08'2 4.2
2018-Feb-10 19:00N 29°47' W 092°10'1 2.7
2018-Feb-10 18:30N 29°47' W 092°12'2 3.5
2018-Feb-10 18:00N 29°48' W 092°13'0 0.2
2018-Feb-10 17:29N 29°48' W 092°14'0 0.0
2018-Feb-10 17:00N 29°48' W 092°14'0 0.0
2018-Feb-10 16:30N 29°48' W 092°14'0 0.0
2018-Feb-10 16:00N 29°48' W 092°14'0 0.0
2018-Feb-10 15:30N 29°48' W 092°14'0 0.0
2018-Feb-10 15:00N 29°48' W 092°14'0 0.0
2018-Feb-10 14:30N 29°48' W 092°14'0 0.0
2018-Feb-10 14:00N 29°48' W 092°14'0 0.0
2018-Feb-10 13:30N 29°48' W 092°14'0 0.0
2018-Feb-10 13:00N 29°48' W 092°14'0 0.0
2018-Feb-10 12:30N 29°48' W 092°14'0 0.0
2018-Feb-10 12:00N 29°48' W 092°14'0 0.0
2018-Feb-10 11:30N 29°48' W 092°14'0 0.0
2018-Feb-10 11:00N 29°48' W 092°14'0 0.0
2018-Feb-10 10:30N 29°48' W 092°14'0 0.0
2018-Feb-10 10:00N 29°48' W 092°14'0 0.0
2018-Feb-10 09:30N 29°48' W 092°14'0 0.0
2018-Feb-10 09:00N 29°48' W 092°14'0 0.0
2018-Feb-10 08:30N 29°48' W 092°14'0 0.0
2018-Feb-10 08:00N 29°48' W 092°14'0 0.1
2018-Feb-10 07:28N 29°48' W 092°14'0 0.1
2018-Feb-10 07:00N 29°48' W 092°14'0 0.1
2018-Feb-10 06:30N 29°48' W 092°14'0 0.2
2018-Feb-10 06:00N 29°48' W 092°14'0 0.1
2018-Feb-10 05:30N 29°48' W 092°14'0 0.0
2018-Feb-10 04:57N 29°48' W 092°14'0 0.2
2018-Feb-10 04:30N 29°48' W 092°14'2 4.8
2018-Feb-10 04:00N 29°49' W 092°16'2 4.3
2018-Feb-10 03:30N 29°50' W 092°18'4 3.1
2018-Feb-10 02:05N 29°52' W 092°22'51 2.7
2018-Feb-09 07:30N 30°06' W 093°19'4 2.8
2018-Feb-09 06:00N 30°04' W 093°23'9 4.3
2018-Feb-09 04:00N 30°04' W 093°33'2 3.7
2018-Feb-09 03:30N 30°04' W 093°35'5 5.0
2018-Feb-09 02:30N 30°04' W 093°41'2 4.8
2018-Feb-09 02:00N 30°03' W 093°44'3 5.1
2018-Feb-09 01:30N 30°01' W 093°46'3 5.5
2018-Feb-09 01:00N 29°59' W 093°48'3 5.6
2018-Feb-09 00:30N 29°58' W 093°51'5 4.8
2018-Feb-08 23:30N 29°60' W 093°57'2 2.5
2018-Feb-08 22:30N 30°01' W 093°59'0 0.0
2018-Feb-08 21:00N 30°01' W 093°59'0 0.0
2018-Feb-08 20:00N 30°01' W 093°59'0 0.0
2018-Feb-08 19:30N 30°01' W 093°59'0 0.0
2018-Feb-08 19:00N 30°01' W 093°59'0 0.0
2018-Feb-08 18:30N 30°01' W 093°59'0 0.0
2018-Feb-08 18:00N 30°01' W 093°59'0 0.0
2018-Feb-08 17:30N 30°01' W 093°59'0 0.0
2018-Feb-08 17:00N 30°01' W 093°59'0 0.0
2018-Feb-08 16:30N 30°01' W 093°59'0 0.0
2018-Feb-08 16:00N 30°01' W 093°59'0 0.0
2018-Feb-08 15:00N 30°01' W 093°59'0 0.0
2018-Feb-08 14:30N 30°01' W 093°59'0 0.0
2018-Feb-08 14:00N 30°01' W 093°59'0 0.0
2018-Feb-08 13:30N 30°01' W 093°59'0 0.0
2018-Feb-08 12:30N 30°01' W 093°59'0 0.0
2018-Feb-08 12:00N 30°01' W 093°59'0 0.0
2018-Feb-08 11:00N 30°01' W 093°59'0 0.0
2018-Feb-08 10:30N 30°01' W 093°59'0 0.0
2018-Feb-08 10:00N 30°01' W 093°59'0 0.0
2018-Feb-08 09:00N 30°01' W 093°59'0 0.0
2018-Feb-08 08:30N 30°01' W 093°59'0 0.0
2018-Feb-08 07:00N 30°01' W 093°59'0 0.0
2018-Feb-08 06:30N 30°01' W 093°59'0 0.0
2018-Feb-08 06:00N 30°01' W 093°59'0 0.0
2018-Feb-08 05:30N 30°01' W 093°59'0 0.0
2018-Feb-08 05:00N 30°01' W 093°59'0 0.0
2018-Feb-08 04:30N 30°01' W 093°59'0 0.0
2018-Feb-08 04:00N 30°01' W 093°59'0 0.0
2018-Feb-08 03:30N 30°01' W 093°59'0 0.0
2018-Feb-08 03:00N 30°01' W 093°59'1 1.8
2018-Feb-08 02:30N 30°01' W 093°58'5 5.0
2018-Feb-08 01:30N 29°59' W 093°53'2 4.1
2018-Feb-08 01:00N 29°58' W 093°51'2 4.3
2018-Feb-08 00:30N 29°59' W 093°48'2 4.7
2018-Feb-08 00:00N 30°00' W 093°46'0 0.1
2018-Feb-07 23:30N 30°00' W 093°46'1 2.1
2018-Feb-07 23:00N 30°01' W 093°45'3 6.3
2018-Feb-07 22:30N 30°03' W 093°43'3 5.3
2018-Feb-07 21:59N 30°04' W 093°39'3 5.8
2018-Feb-07 21:30N 30°04' W 093°36'69 2.1
2018-Feb-06 12:17N 29°50' W 092°18'2 5.1
2018-Feb-06 11:57N 29°49' W 092°16'  
Track history (hours):
 
Tides and Currents Weather Stations Pressure Air Temp Water Temp Dewpoint Dewpoint Depression Visibility Wind Speed Wind Dir Waves Ship Positions

Janice Roberts

Owner: Florida Marine, LLC, Mandeville, LA. More information available from US FCC via Universal Licensing System and Coast Guard Vessel Documentation Center.

Last reported at 2018-Feb-16 11:54 UTC. Time now 2018-Feb-20 13:30 UTC.
Position N 31°27' W 091°31'.

Length 27 m; draft 3.6 m.

Type: Towing. MMSI: 367171930.

Date/timePositionNaut miles runAvg speedWind from/ knotsBaromVisibWave heightAir tempDewpointWater temp
2018-Feb-16 11:54N 31°27' W 091°31'2 4.2
2018-Feb-16 11:28N 31°25' W 091°30'2 3.9
2018-Feb-16 10:50N 31°24' W 091°28'2 3.5
2018-Feb-16 10:18N 31°22' W 091°29'  
2018-Feb-10 21:29N 29°50' W 091°57'2 4.6
2018-Feb-10 21:00N 29°50' W 091°60'2 4.4
2018-Feb-10 20:30N 29°49' W 092°02'3 5.1
2018-Feb-10 20:00N 29°48' W 092°05'3 5.3
2018-Feb-10 19:30N 29°47' W 092°08'2 4.2
2018-Feb-10 19:00N 29°47' W 092°10'1 2.7
2018-Feb-10 18:30N 29°47' W 092°12'2 3.5
2018-Feb-10 18:00N 29°48' W 092°13'0 0.2
2018-Feb-10 17:29N 29°48' W 092°14'0 0.0
2018-Feb-10 17:00N 29°48' W 092°14'0 0.0
2018-Feb-10 16:30N 29°48' W 092°14'0 0.0
2018-Feb-10 16:00N 29°48' W 092°14'0 0.0
2018-Feb-10 15:30N 29°48' W 092°14'0 0.0
2018-Feb-10 15:00N 29°48' W 092°14'0 0.0
2018-Feb-10 14:30N 29°48' W 092°14'0 0.0
2018-Feb-10 14:00N 29°48' W 092°14'0 0.0
2018-Feb-10 13:30N 29°48' W 092°14'0 0.0
2018-Feb-10 13:00N 29°48' W 092°14'0 0.0
2018-Feb-10 12:30N 29°48' W 092°14'0 0.0
2018-Feb-10 12:00N 29°48' W 092°14'0 0.0
2018-Feb-10 11:30N 29°48' W 092°14'0 0.0
2018-Feb-10 11:00N 29°48' W 092°14'0 0.0
2018-Feb-10 10:30N 29°48' W 092°14'0 0.0
2018-Feb-10 10:00N 29°48' W 092°14'0 0.0
2018-Feb-10 09:30N 29°48' W 092°14'0 0.0
2018-Feb-10 09:00N 29°48' W 092°14'0 0.0
2018-Feb-10 08:30N 29°48' W 092°14'0 0.0
2018-Feb-10 08:00N 29°48' W 092°14'0 0.1
2018-Feb-10 07:28N 29°48' W 092°14'0 0.1
2018-Feb-10 07:00N 29°48' W 092°14'0 0.1
2018-Feb-10 06:30N 29°48' W 092°14'0 0.2
2018-Feb-10 06:00N 29°48' W 092°14'0 0.1
2018-Feb-10 05:30N 29°48' W 092°14'0 0.0
2018-Feb-10 04:57N 29°48' W 092°14'0 0.2
2018-Feb-10 04:30N 29°48' W 092°14'2 4.8
2018-Feb-10 04:00N 29°49' W 092°16'2 4.3
2018-Feb-10 03:30N 29°50' W 092°18'4 3.1
2018-Feb-10 02:05N 29°52' W 092°22'51 2.7
2018-Feb-09 07:30N 30°06' W 093°19'4 2.8
2018-Feb-09 06:00N 30°04' W 093°23'9 4.3
2018-Feb-09 04:00N 30°04' W 093°33'2 3.7
2018-Feb-09 03:30N 30°04' W 093°35'5 5.0
2018-Feb-09 02:30N 30°04' W 093°41'2 4.8
2018-Feb-09 02:00N 30°03' W 093°44'3 5.1
2018-Feb-09 01:30N 30°01' W 093°46'3 5.5
2018-Feb-09 01:00N 29°59' W 093°48'3 5.6
2018-Feb-09 00:30N 29°58' W 093°51'5 4.8
2018-Feb-08 23:30N 29°60' W 093°57'2 2.5
2018-Feb-08 22:30N 30°01' W 093°59'0 0.0
2018-Feb-08 21:00N 30°01' W 093°59'0 0.0
2018-Feb-08 20:00N 30°01' W 093°59'0 0.0
2018-Feb-08 19:30N 30°01' W 093°59'0 0.0
2018-Feb-08 19:00N 30°01' W 093°59'0 0.0
2018-Feb-08 18:30N 30°01' W 093°59'0 0.0
2018-Feb-08 18:00N 30°01' W 093°59'0 0.0
2018-Feb-08 17:30N 30°01' W 093°59'0 0.0
2018-Feb-08 17:00N 30°01' W 093°59'0 0.0
2018-Feb-08 16:30N 30°01' W 093°59'0 0.0
2018-Feb-08 16:00N 30°01' W 093°59'0 0.0
2018-Feb-08 15:00N 30°01' W 093°59'0 0.0
2018-Feb-08 14:30N 30°01' W 093°59'0 0.0
2018-Feb-08 14:00N 30°01' W 093°59'0 0.0
2018-Feb-08 13:30N 30°01' W 093°59'0 0.0
2018-Feb-08 12:30N 30°01' W 093°59'0 0.0
2018-Feb-08 12:00N 30°01' W 093°59'0 0.0
2018-Feb-08 11:00N 30°01' W 093°59'0 0.0
2018-Feb-08 10:30N 30°01' W 093°59'0 0.0
2018-Feb-08 10:00N 30°01' W 093°59'0 0.0
2018-Feb-08 09:00N 30°01' W 093°59'0 0.0
2018-Feb-08 08:30N 30°01' W 093°59'0 0.0
2018-Feb-08 07:00N 30°01' W 093°59'0 0.0
2018-Feb-08 06:30N 30°01' W 093°59'0 0.0
2018-Feb-08 06:00N 30°01' W 093°59'0 0.0
2018-Feb-08 05:30N 30°01' W 093°59'0 0.0
2018-Feb-08 05:00N 30°01' W 093°59'0 0.0
2018-Feb-08 04:30N 30°01' W 093°59'0 0.0
2018-Feb-08 04:00N 30°01' W 093°59'0 0.0
2018-Feb-08 03:30N 30°01' W 093°59'0 0.0
2018-Feb-08 03:00N 30°01' W 093°59'1 1.8
2018-Feb-08 02:30N 30°01' W 093°58'5 5.0
2018-Feb-08 01:30N 29°59' W 093°53'2 4.1
2018-Feb-08 01:00N 29°58' W 093°51'2 4.3
2018-Feb-08 00:30N 29°59' W 093°48'2 4.7
2018-Feb-08 00:00N 30°00' W 093°46'0 0.1
2018-Feb-07 23:30N 30°00' W 093°46'1 2.1
2018-Feb-07 23:00N 30°01' W 093°45'3 6.3
2018-Feb-07 22:30N 30°03' W 093°43'3 5.3
2018-Feb-07 21:59N 30°04' W 093°39'3 5.8
2018-Feb-07 21:30N 30°04' W 093°36'69 2.1
2018-Feb-06 12:17N 29°50' W 092°18'2 5.1
2018-Feb-06 11:57N 29°49' W 092°16'  

Dump ship's entire track history